createdAt,value
2018-03-16T00:00:01.522Z,79.73
2018-03-16T00:02:36.033Z,79.85
2018-03-16T00:05:10.393Z,80.13
2018-03-16T00:07:44.751Z,79.52
2018-03-16T00:10:19.766Z,79.25
2018-03-16T00:12:53.595Z,79.49
2018-03-16T00:15:27.176Z,79.22
2018-03-16T00:18:01.651Z,79.09
2018-03-16T00:20:35.831Z,79.25
2018-03-16T00:23:10.028Z,79.33
2018-03-16T00:25:44.623Z,79.72
2018-03-16T00:28:18.385Z,79.74
2018-03-16T00:30:51.771Z,79.85
2018-03-16T00:33:26.544Z,79.78
2018-03-16T00:36:00.460Z,79.88
2018-03-16T00:38:34.926Z,79.86
2018-03-16T00:41:08.702Z,79.73
2018-03-16T00:43:42.633Z,79.63
2018-03-16T00:46:16.435Z,79.43
2018-03-16T00:48:50.259Z,79.81
2018-03-16T00:51:24.090Z,79.83
2018-03-16T00:53:57.557Z,80.16
2018-03-16T00:56:31.477Z,80.65
2018-03-16T00:59:05.249Z,80.46
2018-03-16T01:01:38.686Z,80.88
2018-03-16T01:04:12.809Z,80.54
2018-03-16T01:06:46.533Z,80.84
2018-03-16T01:09:20.764Z,81.08
2018-03-16T01:11:55.411Z,81.36
2018-03-16T01:14:29.249Z,81.33
2018-03-16T01:17:03.129Z,81.59
2018-03-16T01:19:36.880Z,81.46
2018-03-16T01:22:12.278Z,81.46
2018-03-16T01:24:45.652Z,81.59
2018-03-16T01:27:20.798Z,81.45
2018-03-16T01:29:55.767Z,81.30
2018-03-16T01:32:29.552Z,81.22
2018-03-16T01:35:03.210Z,81.00
2018-03-16T01:37:36.547Z,80.39
2018-03-16T01:40:10.673Z,79.61
2018-03-16T01:42:45.614Z,78.79
2018-03-16T01:45:18.922Z,78.46
2018-03-16T01:47:53.133Z,78.32
2018-03-16T01:50:27.775Z,78.23
2018-03-16T01:53:09.888Z,78.16
2018-03-16T01:55:43.353Z,78.20
2018-03-16T01:58:17.103Z,78.01
2018-03-16T02:00:50.605Z,78.12
2018-03-16T02:03:24.440Z,78.07
2018-03-16T02:05:58.872Z,77.90
2018-03-16T02:08:32.323Z,77.93
2018-03-16T02:11:05.936Z,78.12
2018-03-16T02:13:39.747Z,78.22
2018-03-16T02:16:13.219Z,78.02
2018-03-16T02:18:46.528Z,78.02
2018-03-16T02:21:22.204Z,78.02
2018-03-16T02:23:55.945Z,78.17
2018-03-16T02:26:30.530Z,78.31
2018-03-16T02:29:05.228Z,78.36
2018-03-16T02:31:38.863Z,78.38
2018-03-16T02:34:12.307Z,78.33
2018-03-16T02:36:45.704Z,78.38
2018-03-16T02:39:19.290Z,78.46
2018-03-16T02:41:52.882Z,78.21
2018-03-16T02:44:27.686Z,78.37
2018-03-16T02:47:01.449Z,78.59
2018-03-16T02:49:35.183Z,78.43
2018-03-16T02:52:08.878Z,78.42
2018-03-16T02:54:43.179Z,78.32
2018-03-16T02:57:18.933Z,78.41
2018-03-16T02:59:54.151Z,78.20
2018-03-16T03:02:27.409Z,78.26
2018-03-16T03:05:01.320Z,78.43
2018-03-16T03:07:35.136Z,78.56
2018-03-16T03:10:08.471Z,78.37
2018-03-16T03:12:42.271Z,78.52
2018-03-16T03:15:15.955Z,78.59
2018-03-16T03:17:49.816Z,78.90
2018-03-16T03:20:23.751Z,78.67
2018-03-16T03:22:57.713Z,79.11
2018-03-16T03:25:31.461Z,79.01
2018-03-16T03:28:05.163Z,78.98
2018-03-16T03:30:38.609Z,79.69
2018-03-16T03:33:12.490Z,80.14
2018-03-16T03:35:46.049Z,80.57
2018-03-16T03:38:21.128Z,80.79
2018-03-16T03:40:56.175Z,80.58
2018-03-16T03:43:29.810Z,80.81
2018-03-16T03:46:03.206Z,81.38
2018-03-16T03:48:37.486Z,81.35
2018-03-16T03:51:10.844Z,81.32
2018-03-16T03:53:45.614Z,81.25
2018-03-16T03:56:19.434Z,81.85
2018-03-16T03:58:52.773Z,82.63
2018-03-16T04:01:26.441Z,82.89
2018-03-16T04:04:00.410Z,83.15
2018-03-16T04:06:35.369Z,82.80
2018-03-16T04:09:09.100Z,82.96
2018-03-16T04:11:43.727Z,82.89
2018-03-16T04:14:18.566Z,83.45
2018-03-16T04:16:52.298Z,84.33
2018-03-16T04:19:26.312Z,84.16
2018-03-16T04:21:59.623Z,83.76
2018-03-16T04:24:33.698Z,84.54
2018-03-16T04:27:08.061Z,84.36
2018-03-16T04:29:41.668Z,84.74
2018-03-16T04:32:15.437Z,83.94
2018-03-16T04:34:49.684Z,83.45
2018-03-16T04:37:23.042Z,83.53
2018-03-16T04:39:56.818Z,83.88
2018-03-16T04:42:30.661Z,83.90
2018-03-16T04:45:05.191Z,83.86
2018-03-16T04:47:38.676Z,83.45
2018-03-16T04:50:12.301Z,83.47
2018-03-16T04:52:47.739Z,82.57
2018-03-16T04:55:22.001Z,83.65
2018-03-16T04:57:55.754Z,82.95
2018-03-16T05:00:29.738Z,82.58
2018-03-16T05:03:03.034Z,83.40
2018-03-16T05:05:36.846Z,82.86
2018-03-16T05:08:10.490Z,82.93
2018-03-16T05:10:43.785Z,83.47
2018-03-16T05:13:17.648Z,84.31
2018-03-16T05:15:51.299Z,84.06
2018-03-16T05:18:25.678Z,84.47
2018-03-16T05:20:59.670Z,84.60
2018-03-16T05:23:33.379Z,84.51
2018-03-16T05:26:06.758Z,84.54
2018-03-16T05:28:40.655Z,83.37
2018-03-16T05:31:14.594Z,83.11
2018-03-16T05:33:48.197Z,82.75
2018-03-16T05:36:24.200Z,82.51
2018-03-16T05:38:58.110Z,82.64
2018-03-16T05:41:31.580Z,82.54
2018-03-16T05:44:05.487Z,82.19
2018-03-16T05:46:40.336Z,82.29
2018-03-16T05:49:17.421Z,82.49
2018-03-16T05:51:50.869Z,82.87
2018-03-16T05:54:24.444Z,83.08
2018-03-16T05:56:59.497Z,83.08
2018-03-16T05:59:39.652Z,83.02
2018-03-16T06:02:13.190Z,84.10
2018-03-16T06:04:47.037Z,84.54
2018-03-16T06:07:20.560Z,84.78
2018-03-16T06:09:54.184Z,84.79
2018-03-16T06:12:29.712Z,84.79
2018-03-16T06:15:06.442Z,84.99
2018-03-16T06:17:39.946Z,84.99
2018-03-16T06:20:14.047Z,84.56
2018-03-16T06:22:47.644Z,83.99
2018-03-16T06:25:23.625Z,84.49
2018-03-16T06:27:58.906Z,84.30
2018-03-16T06:30:32.614Z,84.14
2018-03-16T06:33:06.388Z,84.58
2018-03-16T06:35:40.220Z,84.76
2018-03-16T06:38:14.720Z,84.83
2018-03-16T06:40:52.542Z,85.54
2018-03-16T06:43:26.137Z,85.41
2018-03-16T06:46:00.157Z,84.98
2018-03-16T06:48:36.108Z,84.96
2018-03-16T06:51:09.828Z,84.92
2018-03-16T06:53:45.181Z,84.73
2018-03-16T06:56:28.532Z,85.08
2018-03-16T06:59:05.817Z,84.81
2018-03-16T07:01:41.197Z,84.58
2018-03-16T07:04:17.608Z,83.44
2018-03-16T07:06:52.788Z,83.89
2018-03-16T07:12:10.975Z,84.78
2018-03-16T07:14:45.609Z,84.51
2018-03-16T07:17:22.933Z,85.25
2018-03-16T07:19:57.991Z,85.28
2018-03-16T07:22:33.460Z,84.99
2018-03-16T07:25:08.173Z,84.83
2018-03-16T07:27:43.920Z,84.87
2018-03-16T07:30:18.057Z,85.06
2018-03-16T07:32:51.814Z,84.89
2018-03-16T07:35:28.033Z,84.85
2018-03-16T07:38:02.059Z,85.09
2018-03-16T07:40:36.003Z,84.37
2018-03-16T07:43:10.134Z,84.21
2018-03-16T07:45:48.404Z,83.98
2018-03-16T07:48:25.793Z,84.21
2018-03-16T07:51:01.403Z,83.67
2018-03-16T07:53:35.466Z,83.91
2018-03-16T07:56:09.860Z,84.37
2018-03-16T07:58:43.744Z,84.08
2018-03-16T08:01:17.433Z,84.68
2018-03-16T08:03:51.417Z,84.67
2018-03-16T08:06:25.085Z,84.36
2018-03-16T08:08:59.283Z,84.31
2018-03-16T08:11:38.549Z,84.60
2018-03-16T08:14:12.566Z,84.22
2018-03-16T08:16:50.713Z,83.94
2018-03-16T08:19:32.015Z,84.03
2018-03-16T08:22:12.430Z,83.48
2018-03-16T08:24:48.224Z,84.03
2018-03-16T08:27:32.429Z,83.90
2018-03-16T08:30:13.840Z,83.32
2018-03-16T08:33:09.928Z,85.08
2018-03-16T08:35:43.887Z,85.53
2018-03-16T08:38:20.421Z,85.62
2018-03-16T08:40:57.979Z,84.21
2018-03-16T08:43:32.406Z,84.34
2018-03-16T08:46:07.485Z,84.91
2018-03-16T08:48:49.266Z,85.01
2018-03-16T08:51:30.283Z,84.58
2018-03-16T08:54:11.579Z,83.96
2018-03-16T08:56:52.789Z,83.31
2018-03-16T08:59:28.225Z,84.55
2018-03-16T09:02:03.525Z,83.90
2018-03-16T09:04:44.698Z,84.62
2018-03-16T09:07:24.267Z,85.96
2018-03-16T09:09:57.983Z,83.55
2018-03-16T09:12:34.741Z,83.05
2018-03-16T09:15:14.968Z,82.93
2018-03-16T09:17:48.980Z,83.54
2018-03-16T09:20:22.308Z,83.05
2018-03-16T09:22:56.118Z,82.77
2018-03-16T09:25:30.197Z,81.64
2018-03-16T09:28:03.984Z,81.17
2018-03-16T09:33:54.300Z,82.59
2018-03-16T09:36:34.769Z,82.64
2018-03-16T09:39:15.281Z,82.64
2018-03-16T09:41:49.233Z,83.38
2018-03-16T09:44:23.031Z,83.24
2018-03-16T09:46:56.913Z,84.78
2018-03-16T09:49:31.091Z,84.63
2018-03-16T09:52:05.705Z,85.57
2018-03-16T09:54:47.919Z,85.23
2018-03-16T09:57:44.614Z,85.03
2018-03-16T10:00:26.245Z,86.33
2018-03-16T10:02:59.505Z,84.97
2018-03-16T10:05:42.999Z,84.65
2018-03-16T10:08:19.544Z,84.91
2018-03-16T10:10:56.091Z,85.10
2018-03-16T10:13:29.590Z,85.03
2018-03-16T10:16:03.708Z,84.32
2018-03-16T10:18:44.283Z,83.43
2018-03-16T10:21:19.355Z,83.22
2018-03-16T10:23:54.133Z,83.81
2018-03-16T10:29:28.490Z,81.84
2018-03-16T10:32:02.335Z,81.01
2018-03-16T10:34:38.580Z,81.11
2018-03-16T10:37:23.508Z,81.27
2018-03-16T10:40:00.547Z,80.59
2018-03-16T10:42:40.180Z,81.47
2018-03-16T10:45:29.374Z,81.38
2018-03-16T10:48:07.538Z,81.63
2018-03-16T10:50:49.764Z,83.46
2018-03-16T10:53:23.497Z,81.39
2018-03-16T10:56:15.517Z,81.33
2018-03-16T11:06:09.740Z,80.08
2018-03-16T11:08:46.342Z,79.86
2018-03-16T11:11:20.706Z,80.59
2018-03-16T11:13:55.186Z,80.56
2018-03-16T11:16:35.045Z,81.25
2018-03-16T11:19:15.421Z,83.15
2018-03-16T11:22:10.697Z,81.10
2018-03-16T11:28:35.678Z,83.28
2018-03-16T11:40:51.740Z,87.79
2018-03-16T11:43:28.999Z,85.01
2018-03-16T11:55:35.904Z,87.47
2018-03-16T11:58:10.214Z,85.45
2018-03-16T12:03:53.467Z,87.00
2018-03-16T12:06:30.136Z,87.35
2018-03-16T12:09:04.773Z,87.28
2018-03-16T12:11:39.439Z,85.82
2018-03-16T12:14:13.404Z,85.28
2018-03-16T12:16:55.966Z,83.84
2018-03-16T12:19:31.764Z,84.24
2018-03-16T12:22:10.962Z,82.34
2018-03-16T12:24:44.545Z,81.43
2018-03-16T12:27:18.603Z,81.04
2018-03-16T12:29:52.609Z,81.23
2018-03-16T12:32:27.047Z,80.75
2018-03-16T12:35:24.281Z,81.38
2018-03-16T12:42:22.554Z,81.79
2018-03-16T12:45:03.566Z,81.47
2018-03-16T12:47:39.191Z,81.76
2018-03-16T12:51:06.640Z,81.31
2018-03-16T12:57:39.109Z,81.98
2018-03-16T13:00:14.379Z,82.35
2018-03-16T13:02:57.903Z,82.34
2018-03-16T13:05:37.375Z,82.50
2018-03-16T13:08:19.895Z,82.42
2018-03-16T13:10:57.352Z,82.34
2018-03-16T13:13:30.818Z,83.11
2018-03-16T13:16:20.563Z,82.65
2018-03-16T13:18:56.376Z,82.53
2018-03-16T13:21:30.441Z,81.74
2018-03-16T13:26:42.112Z,83.16
2018-03-16T13:29:16.940Z,83.83
2018-03-16T13:31:52.306Z,84.40
2018-03-16T13:34:29.455Z,83.65
2018-03-16T13:37:09.464Z,83.81
2018-03-16T13:39:53.244Z,82.99
2018-03-16T13:42:31.842Z,82.61
2018-03-16T13:49:24.251Z,86.09
2018-03-16T13:51:58.414Z,85.72
2018-03-16T14:11:19.834Z,88.63
2018-03-16T14:13:56.169Z,90.23
2018-03-16T14:16:30.974Z,89.29
2018-03-16T14:19:14.547Z,89.81
2018-03-16T14:21:48.263Z,90.50
2018-03-16T14:24:27.243Z,91.54
2018-03-16T14:27:13.857Z,90.16
2018-03-16T14:29:52.179Z,91.37
2018-03-16T14:32:26.754Z,91.16
2018-03-16T14:35:03.787Z,91.52
2018-03-16T14:37:39.874Z,97.76
2018-03-16T14:41:18.278Z,41.44
2018-03-16T14:43:52.179Z,62.53
2018-03-16T14:46:29.520Z,75.50
2018-03-16T14:49:03.021Z,80.62
2018-03-16T14:51:40.423Z,80.77
2018-03-16T14:54:15.384Z,83.05
2018-03-16T14:59:57.230Z,84.05
2018-03-16T15:02:31.203Z,84.18
2018-03-16T15:05:15.717Z,83.84
2018-03-16T15:07:55.077Z,85.00
2018-03-16T15:13:37.768Z,84.44
2018-03-16T15:16:14.708Z,84.62
2018-03-16T15:19:44.816Z,85.11
2018-03-16T15:22:18.566Z,85.32
2018-03-16T15:24:54.046Z,85.10
2018-03-16T15:27:30.596Z,85.71
2018-03-16T15:30:16.695Z,85.90
2018-03-16T15:32:52.609Z,86.69
2018-03-16T15:35:45.649Z,86.66
2018-03-16T15:38:20.180Z,86.74
2018-03-16T15:41:45.036Z,86.70
2018-03-16T15:45:00.933Z,86.24
2018-03-16T15:47:52.630Z,85.90
2018-03-16T15:53:16.612Z,85.93
2018-03-16T15:55:52.601Z,85.24
2018-03-16T15:58:34.324Z,84.42
2018-03-16T16:01:10.128Z,84.47
2018-03-16T16:03:44.113Z,85.05
2018-03-16T16:06:18.153Z,85.05
2018-03-16T16:08:59.907Z,86.23
2018-03-16T16:11:50.057Z,86.11
2018-03-16T16:14:28.652Z,87.49
2018-03-16T16:17:03.104Z,87.54
2018-03-16T16:19:50.195Z,87.34
2018-03-16T16:22:25.512Z,87.50
2018-03-16T16:25:00.884Z,87.85
2018-03-16T16:27:36.393Z,87.35
2018-03-16T16:30:31.964Z,86.76
2018-03-16T16:33:05.975Z,87.40
2018-03-16T16:38:39.297Z,87.91
2018-03-16T16:41:18.879Z,87.45
2018-03-16T16:44:02.305Z,87.09
2018-03-16T16:46:38.860Z,87.29
2018-03-16T16:49:19.830Z,87.26
2018-03-16T16:51:56.037Z,92.79
2018-03-16T16:57:57.572Z,93.94
2018-03-16T17:00:32.377Z,93.84
2018-03-16T17:03:07.581Z,93.76
2018-03-16T17:05:44.615Z,93.48
2018-03-16T17:08:20.011Z,92.97
2018-03-16T17:10:53.770Z,92.29
2018-03-16T17:13:40.959Z,91.47
2018-03-16T17:16:15.527Z,90.57
2018-03-16T17:18:56.740Z,89.33
2018-03-16T17:21:30.745Z,88.07
2018-03-16T17:24:07.635Z,86.92
2018-03-16T17:26:41.664Z,87.00
2018-03-16T17:29:21.185Z,86.52
2018-03-16T17:32:00.447Z,86.45
2018-03-16T17:34:38.596Z,86.58
2018-03-16T17:37:17.936Z,85.77
2018-03-16T17:39:51.833Z,85.96
2018-03-16T17:42:29.179Z,86.36
2018-03-16T17:45:03.929Z,87.75
2018-03-16T17:47:42.411Z,88.39
2018-03-16T17:50:18.561Z,89.05
2018-03-16T17:52:56.356Z,88.41
2018-03-16T17:56:02.626Z,88.54
2018-03-16T18:02:03.624Z,88.37
2018-03-16T18:04:38.948Z,87.76
2018-03-16T18:07:20.573Z,87.50
2018-03-16T18:09:55.402Z,86.98
2018-03-16T18:12:51.912Z,91.77
2018-03-16T18:15:43.424Z,92.23
2018-03-16T18:18:17.790Z,92.11
2018-03-16T18:21:00.455Z,92.11
2018-03-16T18:23:34.471Z,91.61
2018-03-16T18:26:09.190Z,90.39
2018-03-16T18:28:44.875Z,88.39
2018-03-16T18:31:18.400Z,87.15
2018-03-16T18:33:52.542Z,86.59
2018-03-16T18:36:42.833Z,86.28
2018-03-16T18:39:28.539Z,85.32
2018-03-16T18:42:05.064Z,84.76
2018-03-16T18:44:41.892Z,84.73
2018-03-16T18:47:18.266Z,85.05
2018-03-16T18:49:56.576Z,85.72
2018-03-16T18:52:36.143Z,85.54
2018-03-16T18:55:30.956Z,85.06
2018-03-16T18:58:20.049Z,84.41
2018-03-16T19:00:59.599Z,85.08
2018-03-16T19:03:34.324Z,84.86
2018-03-16T19:09:04.316Z,85.27
2018-03-16T19:11:40.859Z,84.66
2018-03-16T19:14:15.459Z,84.81
2018-03-16T19:16:51.467Z,84.20
2018-03-16T19:19:31.472Z,85.31
2018-03-16T19:22:05.646Z,85.26
2018-03-16T19:24:39.973Z,84.55
2018-03-16T19:27:20.353Z,83.92
2018-03-16T19:29:55.951Z,83.83
2018-03-16T19:32:36.873Z,84.12
2018-03-16T19:35:18.125Z,83.50
2018-03-16T19:37:55.868Z,84.22
2018-03-16T19:40:29.981Z,83.76
2018-03-16T19:43:23.685Z,83.52
2018-03-16T19:46:02.772Z,83.81
2018-03-16T19:51:57.088Z,83.92
2018-03-16T19:54:39.740Z,83.45
2018-03-16T19:57:38.963Z,83.63
2018-03-16T20:00:19.031Z,83.13
2018-03-16T20:02:59.173Z,84.42
2018-03-16T20:05:38.382Z,84.41
2018-03-16T20:08:17.442Z,84.01
2018-03-16T20:10:57.070Z,84.46
2018-03-16T20:13:36.828Z,84.43
2018-03-16T20:16:16.038Z,84.32
2018-03-16T20:21:51.272Z,84.07
2018-03-16T20:24:32.923Z,84.37
2018-03-16T20:27:14.357Z,84.30
2018-03-16T20:29:54.934Z,84.78
2018-03-16T20:32:36.526Z,85.06
2018-03-16T20:35:19.169Z,85.28
2018-03-16T20:38:00.897Z,85.10
2018-03-16T20:40:41.081Z,83.98
2018-03-16T20:43:20.727Z,84.19
2018-03-16T20:46:01.195Z,83.61
2018-03-16T20:48:42.557Z,84.01
2018-03-16T20:51:22.172Z,83.18
2018-03-16T20:54:02.306Z,83.91
2018-03-16T20:56:41.629Z,84.03
2018-03-16T20:59:23.248Z,83.94
2018-03-16T21:02:02.779Z,84.74
2018-03-16T21:04:43.640Z,83.67
2018-03-16T21:07:22.640Z,83.69
2018-03-16T21:10:03.168Z,83.46
2018-03-16T21:12:46.018Z,84.23
2018-03-16T21:15:25.181Z,84.27
2018-03-16T21:18:06.715Z,84.29
2018-03-16T21:20:50.704Z,83.43
2018-03-16T21:23:42.573Z,83.18
2018-03-16T21:26:25.796Z,84.62
2018-03-16T21:29:06.102Z,83.75
2018-03-16T21:31:47.245Z,83.97
2018-03-16T21:34:28.127Z,84.33
2018-03-16T21:37:07.492Z,83.87
2018-03-16T21:39:48.266Z,83.97
2018-03-16T21:42:28.747Z,83.85
2018-03-16T21:45:11.121Z,83.17
2018-03-16T21:47:50.148Z,83.06
2018-03-16T21:50:43.434Z,84.03
2018-03-16T21:53:23.477Z,83.03
2018-03-16T21:56:02.967Z,83.85
2018-03-16T21:58:43.436Z,83.05
2018-03-16T22:01:23.779Z,83.07
2018-03-16T22:04:04.109Z,84.29
2018-03-16T22:06:47.851Z,83.46
2018-03-16T22:09:28.165Z,83.06
2018-03-16T22:12:07.391Z,82.94
2018-03-16T22:14:46.345Z,83.52
2018-03-16T22:17:25.233Z,83.94
2018-03-16T22:20:07.276Z,82.62
2018-03-16T22:22:47.001Z,83.62
2018-03-16T22:25:26.461Z,84.05
2018-03-16T22:28:06.110Z,83.53
2018-03-16T22:30:45.135Z,82.32
2018-03-16T22:33:26.763Z,82.84
2018-03-16T22:36:08.799Z,82.49
2018-03-16T22:38:48.077Z,82.72
2018-03-16T22:41:32.572Z,82.67
2018-03-16T22:44:13.092Z,81.62
2018-03-16T22:46:52.037Z,81.42
2018-03-16T22:49:31.757Z,82.80
2018-03-16T22:52:11.804Z,81.72
2018-03-16T22:54:52.938Z,81.05
2018-03-16T22:57:32.123Z,82.34
2018-03-16T23:00:12.272Z,81.36
2018-03-16T23:02:52.352Z,81.10
2018-03-16T23:05:31.482Z,81.36
2018-03-16T23:08:12.717Z,81.34
2018-03-16T23:10:53.218Z,81.41
2018-03-16T23:13:32.059Z,80.84
2018-03-16T23:16:11.673Z,81.86
2018-03-16T23:18:54.098Z,81.18
2018-03-16T23:21:33.762Z,81.10
2018-03-16T23:24:12.594Z,81.59
2018-03-16T23:26:53.731Z,81.09
2018-03-16T23:29:33.448Z,80.50
2018-03-16T23:32:14.210Z,80.94
2018-03-16T23:34:53.554Z,80.64
2018-03-16T23:37:35.039Z,80.88
2018-03-16T23:40:16.631Z,81.20
2018-03-16T23:42:55.505Z,80.39
2018-03-16T23:45:34.544Z,79.97
2018-03-16T23:48:14.030Z,80.34
2018-03-16T23:50:53.054Z,80.35
2018-03-16T23:53:35.288Z,80.42
2018-03-16T23:56:15.091Z,80.24
2018-03-16T23:58:56.496Z,79.72
